Time;durP1;ratioP1;P1;durP2;ratioP2;P2;SDS_P1;SDS_P2;PMS_P1;PMS_P2;Temp;Humidity;BMP_temperature;BMP_pressure;BME280_temperature;BME280_humidity;BME280_pressure;Samples;Min_cycle;Max_cycle;Signal;HPM_P1;HPM_P2
2023/12/06 00:02:46;;;;;;;80.45;30.20;;;2.50;88.30;;;;;;9177396;19;20019;-70
2023/12/06 00:05:51;;;;;;;75.90;31.48;;;2.60;88.30;;;;;;9177077;19;20041;-70
2023/12/06 00:08:59;;;;;;;73.88;28.65;;;2.50;88.40;;;;;;9177852;19;20018;-71
2023/12/06 00:12:08;;;;;;;71.70;28.05;;;2.50;88.30;;;;;;9175486;19;20026;-70
2023/12/06 00:15:15;;;;;;;77.75;31.20;;;2.50;88.30;;;;;;9180326;19;20605;-70
2023/12/06 00:18:21;;;;;;;77.90;31.10;;;2.50;88.30;;;;;;9182189;19;20027;-70
2023/12/06 00:21:30;;;;;;;76.43;30.67;;;2.60;88.40;;;;;;9181850;19;20022;-70
2023/12/06 00:24:35;;;;;;;70.65;30.33;;;2.50;88.30;;;;;;9181911;19;20017;-71
2023/12/06 00:27:46;;;;;;;78.68;31.02;;;2.50;88.30;;;;;;9178921;19;20804;-70
2023/12/06 00:30:51;;;;;;;76.50;30.55;;;2.50;88.40;;;;;;9178597;19;20028;-71
2023/12/06 00:33:59;;;;;;;71.68;29.48;;;2.50;88.30;;;;;;9181350;19;20014;-71
2023/12/06 00:37:04;;;;;;;76.85;30.77;;;2.50;88.30;;;;;;9181028;19;20089;-71
2023/12/06 00:40:13;;;;;;;73.80;28.25;;;2.50;88.40;;;;;;9179825;19;20042;-70
2023/12/06 00:43:22;;;;;;;73.45;29.17;;;2.60;88.40;;;;;;9181537;19;20021;-68
2023/12/06 00:46:29;;;;;;;74.80;29.95;;;2.60;88.40;;;;;;9180256;19;20018;-70
2023/12/06 00:49:35;;;;;;;73.50;29.23;;;2.60;88.40;;;;;;9180972;19;20018;-68
2023/12/06 00:52:42;;;;;;;70.20;29.05;;;2.60;88.40;;;;;;9175628;19;20011;-68
2023/12/06 00:55:48;;;;;;;71.60;30.20;;;2.60;88.40;;;;;;9179915;19;20031;-69
2023/12/06 00:58:58;;;;;;;70.55;28.30;;;2.60;88.40;;;;;;9174668;19;20014;-68
2023/12/06 01:02:03;;;;;;;68.18;28.60;;;2.60;88.30;;;;;;9180828;19;20022;-68
2023/12/06 01:05:11;;;;;;;69.65;27.70;;;2.60;88.30;;;;;;9179935;19;20038;-68
2023/12/06 01:08:17;;;;;;;65.30;28.08;;;2.60;88.30;;;;;;9179461;19;20010;-67
2023/12/06 01:11:24;;;;;;;66.63;28.98;;;2.60;88.30;;;;;;9177650;19;20034;-68
2023/12/06 01:14:33;;;;;;;62.78;28.42;;;2.50;88.30;;;;;;9175936;19;20026;-69
2023/12/06 01:17:40;;;;;;;64.50;27.70;;;2.50;88.20;;;;;;9177839;19;20011;-69
2023/12/06 01:20:46;;;;;;;65.18;28.08;;;2.50;88.20;;;;;;9176676;19;20027;-68
2023/12/06 01:23:53;;;;;;;62.85;28.05;;;2.50;88.20;;;;;;9178124;19;20034;-68
2023/12/06 01:26:59;;;;;;;61.88;26.15;;;2.50;88.30;;;;;;9178702;19;20017;-68
2023/12/06 01:30:10;;;;;;;58.25;26.58;;;2.50;88.30;;;;;;9177320;19;20021;-68
2023/12/06 01:33:17;;;;;;;62.47;27.73;;;2.50;88.30;;;;;;9177574;19;20014;-69
2023/12/06 01:36:25;;;;;;;68.47;27.92;;;2.50;88.30;;;;;;9178691;19;20021;-68
2023/12/06 01:39:31;;;;;;;61.58;26.00;;;2.50;88.30;;;;;;9175633;19;20583;-68
2023/12/06 01:42:39;;;;;;;58.00;26.25;;;2.50;88.30;;;;;;9176903;19;20015;-68
2023/12/06 01:45:47;;;;;;;62.72;28.77;;;2.50;88.30;;;;;;9177445;19;20015;-68
2023/12/06 01:48:57;;;;;;;55.88;25.80;;;2.50;88.40;;;;;;9176750;19;20021;-70
2023/12/06 01:52:02;;;;;;;55.63;25.63;;;2.50;88.30;;;;;;9176986;19;20026;-67
2023/12/06 01:55:11;;;;;;;56.80;26.52;;;2.50;88.30;;;;;;9178226;19;20022;-68
2023/12/06 01:58:17;;;;;;;58.72;26.55;;;2.50;88.30;;;;;;9173355;19;20022;-68
2023/12/06 02:01:27;;;;;;;52.33;25.70;;;2.50;88.30;;;;;;9178160;19;20438;-67
2023/12/06 02:04:33;;;;;;;53.53;24.50;;;2.50;88.30;;;;;;9177427;19;20015;-68
2023/12/06 02:07:43;;;;;;;54.03;25.17;;;2.50;88.30;;;;;;9177386;19;20037;-68
2023/12/06 02:10:48;;;;;;;52.97;23.88;;;2.50;88.40;;;;;;9177295;19;20045;-68
2023/12/06 02:13:56;;;;;;;53.10;25.45;;;2.50;88.40;;;;;;9177431;19;20018;-67
2023/12/06 02:17:05;;;;;;;56.63;25.40;;;2.50;88.40;;;;;;9177677;19;20027;-67
2023/12/06 02:20:14;;;;;;;48.50;23.05;;;2.50;88.40;;;;;;9177012;19;20019;-68
2023/12/06 02:23:19;;;;;;;53.42;24.55;;;2.50;88.40;;;;;;9177553;19;20010;-68
2023/12/06 02:26:30;;;;;;;48.33;23.30;;;2.50;88.40;;;;;;9174110;19;20035;-68
2023/12/06 02:29:35;;;;;;;49.50;24.25;;;2.50;88.40;;;;;;9174647;19;20053;-67
2023/12/06 02:32:43;;;;;;;53.42;23.98;;;2.50;88.40;;;;;;9174227;19;20434;-69
2023/12/06 02:35:51;;;;;;;50.13;23.90;;;2.50;88.40;;;;;;9175573;19;20011;-67
2023/12/06 02:38:59;;;;;;;51.58;24.27;;;2.50;88.30;;;;;;9176314;19;20019;-70
2023/12/06 02:42:07;;;;;;;51.22;25.65;;;2.50;88.30;;;;;;9175355;19;20022;-67
2023/12/06 02:45:15;;;;;;;53.88;24.85;;;2.50;88.40;;;;;;9173555;19;20044;-68
2023/12/06 02:48:21;;;;;;;53.00;24.98;;;2.50;88.40;;;;;;9175178;19;20007;-67
2023/12/06 02:51:28;;;;;;;51.15;24.35;;;2.50;88.40;;;;;;9175313;19;20603;-67
2023/12/06 02:54:34;;;;;;;52.40;24.77;;;2.50;88.40;;;;;;9173576;19;20014;-69
2023/12/06 02:57:44;;;;;;;56.97;25.67;;;2.50;88.40;;;;;;9171273;19;20017;-68
2023/12/06 03:00:49;;;;;;;60.75;24.17;;;2.50;88.50;;;;;;9174164;19;20025;-70
2023/12/06 03:03:57;;;;;;;52.10;23.70;;;2.50;88.50;;;;;;9174385;19;20043;-70
2023/12/06 03:07:02;;;;;;;57.45;25.00;;;2.60;88.50;;;;;;9172038;19;20007;-70
2023/12/06 03:10:11;;;;;;;52.92;24.40;;;2.60;88.50;;;;;;9174304;19;20015;-70
2023/12/06 03:13:19;;;;;;;55.80;25.33;;;2.60;88.50;;;;;;9172459;19;20018;-70
2023/12/06 03:16:26;;;;;;;54.08;23.58;;;2.60;88.50;;;;;;9171773;19;20026;-71
2023/12/06 03:19:32;;;;;;;54.13;23.42;;;2.60;88.50;;;;;;9173210;19;20057;-71
2023/12/06 03:22:39;;;;;;;51.53;25.00;;;2.60;88.40;;;;;;9175127;19;20018;-70
2023/12/06 03:25:45;;;;;;;54.67;23.92;;;2.60;88.40;;;;;;9173699;19;20014;-72
2023/12/06 03:28:55;;;;;;;52.45;23.98;;;2.60;88.40;;;;;;9173455;19;20504;-70
2023/12/06 03:32:00;;;;;;;47.65;23.48;;;2.60;88.50;;;;;;9171490;19;20015;-70
2023/12/06 03:35:09;;;;;;;50.90;24.95;;;2.60;88.50;;;;;;9172050;19;20034;-70
2023/12/06 03:38:14;;;;;;;49.83;23.42;;;2.60;88.50;;;;;;9173971;19;20082;-70
2023/12/06 03:41:22;;;;;;;53.00;24.63;;;2.60;88.50;;;;;;9174129;19;20711;-70
2023/12/06 03:44:31;;;;;;;48.10;23.20;;;2.60;88.50;;;;;;9173996;19;20018;-70
2023/12/06 03:47:38;;;;;;;49.17;24.13;;;2.60;88.60;;;;;;9173548;19;20479;-70
2023/12/06 03:50:44;;;;;;;55.35;23.92;;;2.60;88.50;;;;;;9173827;19;20022;-70
2023/12/06 03:53:51;;;;;;;54.92;25.10;;;2.70;88.60;;;;;;9169760;19;20382;-70
2023/12/06 03:56:57;;;;;;;52.97;23.83;;;2.70;88.60;;;;;;9169659;19;20015;-70
2023/12/06 04:00:10;;;;;;;51.63;23.45;;;2.70;88.60;;;;;;9173502;19;20018;-71
2023/12/06 04:03:16;;;;;;;58.22;24.27;;;2.70;88.60;;;;;;9173755;19;20029;-70
2023/12/06 04:06:23;;;;;;;53.67;24.67;;;2.70;88.60;;;;;;9177676;19;20015;-71
2023/12/06 04:09:29;;;;;;;54.72;24.33;;;2.70;88.50;;;;;;9180088;19;20074;-71
2023/12/06 04:12:37;;;;;;;49.55;23.30;;;2.70;88.60;;;;;;9179357;19;20032;-69
2023/12/06 04:15:45;;;;;;;51.83;24.10;;;2.70;88.50;;;;;;9181973;19;20503;-72
2023/12/06 04:18:53;;;;;;;46.45;21.95;;;2.70;88.60;;;;;;9181022;19;20356;-72
2023/12/06 04:21:59;;;;;;;51.83;23.08;;;2.70;89.20;;;;;;9182163;19;20022;-73
2023/12/06 04:25:08;;;;;;;45.90;23.20;;;2.80;88.60;;;;;;9181295;19;20115;-73
2023/12/06 04:28:13;;;;;;;51.95;23.38;;;2.70;88.60;;;;;;9181113;19;20412;-71
2023/12/06 04:31:23;;;;;;;49.58;22.60;;;2.70;88.60;;;;;;9178404;19;20025;-73
2023/12/06 04:34:29;;;;;;;48.95;23.65;;;2.80;88.60;;;;;;9178818;19;20014;-72
2023/12/06 04:37:36;;;;;;;49.88;22.67;;;2.80;88.70;;;;;;9181202;19;20019;-72
2023/12/06 04:40:42;;;;;;;47.33;20.73;;;2.80;88.70;;;;;;9180201;19;20022;-72
2023/12/06 04:43:49;;;;;;;50.80;23.70;;;2.80;88.70;;;;;;9181441;19;20022;-72
2023/12/06 04:46:57;;;;;;;45.75;22.27;;;2.80;88.70;;;;;;9181291;19;20010;-72
2023/12/06 04:50:06;;;;;;;46.80;22.70;;;2.80;88.70;;;;;;9181047;19;20053;-71
2023/12/06 04:53:11;;;;;;;50.42;22.42;;;2.80;88.70;;;;;;9178342;19;20035;-72
2023/12/06 04:56:19;;;;;;;57.85;22.52;;;2.90;88.70;;;;;;9176236;19;20015;-72
2023/12/06 04:59:24;;;;;;;45.53;21.50;;;2.80;88.70;;;;;;9175316;19;20011;-72
2023/12/06 05:02:35;;;;;;;43.38;21.48;;;2.80;88.70;;;;;;9178898;19;20014;-73
2023/12/06 05:05:40;;;;;;;41.88;19.88;;;2.90;88.70;;;;;;9177480;19;20376;-72
2023/12/06 05:08:48;;;;;;;40.42;20.45;;;2.90;88.70;;;;;;9178736;19;20014;-72
2023/12/06 05:11:53;;;;;;;34.75;18.52;;;2.90;88.80;;;;;;9179233;19;20052;-73
2023/12/06 05:15:01;;;;;;;41.40;19.80;;;2.90;88.70;;;;;;9174906;19;20014;-72
2023/12/06 05:18:10;;;;;;;35.03;17.92;;;2.90;88.70;;;;;;9176743;19;20395;-73
2023/12/06 05:21:18;;;;;;;34.55;17.27;;;2.90;88.70;;;;;;9179775;19;20420;-73
2023/12/06 05:24:23;;;;;;;39.72;18.77;;;2.80;88.70;;;;;;9178808;19;20026;-69
2023/12/06 05:27:32;;;;;;;39.78;19.50;;;2.90;88.70;;;;;;9176590;19;20404;-69
2023/12/06 05:30:39;;;;;;;37.13;18.00;;;2.90;88.70;;;;;;9175451;19;20486;-69
2023/12/06 05:33:49;;;;;;;32.60;16.63;;;2.90;88.70;;;;;;9175849;19;20377;-69
2023/12/06 05:36:54;;;;;;;39.97;19.17;;;2.90;88.80;;;;;;9178294;19;20419;-69
2023/12/06 05:40:03;;;;;;;33.08;16.88;;;2.90;88.80;;;;;;9176389;19;20452;-69
2023/12/06 05:43:09;;;;;;;33.20;17.42;;;2.90;88.80;;;;;;9175857;19;20021;-70
2023/12/06 05:46:16;;;;;;;35.80;17.60;;;2.90;88.80;;;;;;9176187;19;20406;-70
2023/12/06 05:49:26;;;;;;;33.00;17.33;;;2.90;88.80;;;;;;9175720;19;20010;-69
2023/12/06 05:52:33;;;;;;;32.72;18.02;;;2.90;88.80;;;;;;9174192;19;20021;-68
2023/12/06 05:55:40;;;;;;;35.30;17.08;;;2.90;88.80;;;;;;9172524;19;20411;-69
2023/12/06 05:58:47;;;;;;;32.55;17.02;;;2.90;88.80;;;;;;9172973;19;20376;-71
2023/12/06 06:01:52;;;;;;;29.55;16.42;;;2.90;88.80;;;;;;9177917;19;20352;-68
2023/12/06 06:05:03;;;;;;;30.50;17.10;;;2.90;88.80;;;;;;9177310;19;20034;-68
2023/12/06 06:08:08;;;;;;;34.35;16.30;;;2.90;88.80;;;;;;9177701;19;20698;-68
2023/12/06 06:11:16;;;;;;;29.50;16.42;;;2.90;88.70;;;;;;9175552;19;20015;-69
2023/12/06 06:14:22;;;;;;;31.83;17.20;;;2.90;88.80;;;;;;9174103;19;20011;-69
2023/12/06 06:17:30;;;;;;;37.60;17.80;;;2.90;88.80;;;;;;9175865;19;20026;-69
2023/12/06 06:20:39;;;;;;;32.25;16.20;;;2.90;88.80;;;;;;9176819;19;20029;-69
2023/12/06 06:23:46;;;;;;;30.20;15.90;;;2.90;88.80;;;;;;9175664;19;20515;-70
2023/12/06 06:26:52;;;;;;;31.95;16.38;;;2.90;88.80;;;;;;9175093;19;20099;-69
2023/12/06 06:29:59;;;;;;;32.08;16.42;;;3.00;88.90;;;;;;9174969;19;20496;-69
2023/12/06 06:33:05;;;;;;;31.33;15.57;;;3.00;88.90;;;;;;9170997;19;20023;-70
2023/12/06 06:36:15;;;;;;;30.52;15.68;;;3.00;88.90;;;;;;9165835;19;20014;-69
2023/12/06 06:39:20;;;;;;;30.70;16.33;;;3.00;88.90;;;;;;9175755;19;20086;-69
2023/12/06 06:42:28;;;;;;;37.65;17.58;;;3.00;88.90;;;;;;9176280;19;20022;-69
2023/12/06 06:45:35;;;;;;;30.13;16.23;;;3.00;88.90;;;;;;9173738;19;20832;-69
2023/12/06 06:48:42;;;;;;;30.02;16.42;;;3.00;88.90;;;;;;9170607;19;20362;-69
2023/12/06 06:51:51;;;;;;;33.53;16.83;;;3.00;89.00;;;;;;9175745;19;20028;-70
2023/12/06 06:54:59;;;;;;;30.55;16.95;;;3.00;89.00;;;;;;9171807;19;20030;-72
2023/12/06 06:58:04;;;;;;;33.42;16.92;;;3.10;89.00;;;;;;9171100;19;20018;-68
2023/12/06 07:01:12;;;;;;;31.17;18.20;;;3.10;89.00;;;;;;9172911;19;20022;-69
2023/12/06 07:04:17;;;;;;;34.10;16.67;;;3.10;89.60;;;;;;9172509;19;20546;-69
2023/12/06 07:07:29;;;;;;;29.33;15.80;;;3.10;89.10;;;;;;9174476;19;20345;-69
2023/12/06 07:10:37;;;;;;;32.35;17.13;;;3.10;89.10;;;;;;9174436;19;20019;-68
2023/12/06 07:13:44;;;;;;;32.03;15.20;;;3.20;89.10;;;;;;9175029;19;20015;-68
2023/12/06 07:16:50;;;;;;;41.53;16.58;;;3.20;89.10;;;;;;9174952;19;20014;-68
2023/12/06 07:19:58;;;;;;;29.63;16.00;;;3.20;89.20;;;;;;9174121;19;20056;-68
2023/12/06 07:23:08;;;;;;;27.98;16.27;;;3.20;89.10;;;;;;9174953;19;20025;-69
2023/12/06 07:26:15;;;;;;;36.63;16.65;;;3.20;89.20;;;;;;9173497;19;20070;-70
2023/12/06 07:29:20;;;;;;;33.58;15.55;;;3.30;89.20;;;;;;9173780;19;20030;-71
2023/12/06 07:32:28;;;;;;;34.80;16.45;;;3.30;89.20;;;;;;9174825;19;20022;-70
2023/12/06 07:35:40;;;;;;;31.85;17.30;;;3.30;89.20;;;;;;9172748;19;20022;-70
2023/12/06 07:38:51;;;;;;;31.17;16.92;;;3.30;89.20;;;;;;9171848;19;20014;-70
2023/12/06 07:41:56;;;;;;;31.08;16.10;;;3.30;89.20;;;;;;9181230;19;20050;-71
2023/12/06 07:45:04;;;;;;;31.75;17.25;;;3.30;89.20;;;;;;9179221;19;20781;-70
2023/12/06 07:48:09;;;;;;;31.92;16.23;;;3.40;89.20;;;;;;9182130;19;20014;-69
2023/12/06 07:51:17;;;;;;;34.85;17.77;;;3.40;89.20;;;;;;9184267;19;20014;-69
2023/12/06 07:54:25;;;;;;;36.33;15.77;;;3.40;89.20;;;;;;9183271;19;20023;-69
2023/12/06 07:57:32;;;;;;;34.10;17.77;;;3.40;89.30;;;;;;9178205;19;20014;-71
2023/12/06 08:00:38;;;;;;;27.30;15.50;;;3.50;89.40;;;;;;9182606;19;20019;-71
2023/12/06 08:03:48;;;;;;;31.10;16.38;;;3.40;89.30;;;;;;9182214;19;20491;-70
2023/12/06 08:06:54;;;;;;;34.40;18.00;;;3.50;89.40;;;;;;9180102;19;20039;-70
2023/12/06 08:10:09;;;;;;;40.35;17.52;;;3.50;89.40;;;;;;9181807;19;20014;-70
2023/12/06 08:13:14;;;;;;;30.17;16.83;;;3.60;89.40;;;;;;9182549;19;20376;-71
2023/12/06 08:16:22;;;;;;;36.88;17.52;;;3.50;89.40;;;;;;9179626;19;20692;-69
2023/12/06 08:19:28;;;;;;;40.30;19.13;;;3.60;89.50;;;;;;9182064;19;20078;-70
2023/12/06 08:22:37;;;;;;;34.85;17.58;;;3.60;89.50;;;;;;9182312;19;20559;-69
2023/12/06 08:25:45;;;;;;;37.38;19.65;;;3.60;89.40;;;;;;9180097;19;20018;-69
2023/12/06 08:28:52;;;;;;;33.92;16.58;;;3.60;89.50;;;;;;9181007;19;20018;-68
2023/12/06 08:31:58;;;;;;;31.77;16.85;;;3.60;89.40;;;;;;9182680;19;20562;-68
2023/12/06 08:35:05;;;;;;;32.70;16.27;;;3.70;89.50;;;;;;9178617;19;20098;-68
2023/12/06 08:38:11;;;;;;;31.63;16.25;;;3.70;89.50;;;;;;9181082;19;20044;-69
2023/12/06 08:41:21;;;;;;;31.73;15.32;;;3.70;89.40;;;;;;9176891;19;20018;-68
2023/12/06 08:44:28;;;;;;;30.83;15.80;;;3.70;89.50;;;;;;9179424;19;20516;-69
2023/12/06 08:47:35;;;;;;;31.23;15.75;;;3.70;89.50;;;;;;9179467;19;20026;-68
2023/12/06 08:50:41;;;;;;;33.17;16.63;;;3.80;89.50;;;;;;9177311;19;20018;-69
2023/12/06 08:53:48;;;;;;;33.00;16.15;;;3.80;89.50;;;;;;9177593;19;20030;-68
2023/12/06 08:56:56;;;;;;;35.70;16.33;;;3.80;89.50;;;;;;9171969;19;20014;-67
2023/12/06 09:00:07;;;;;;;29.40;14.88;;;3.80;89.60;;;;;;9175381;19;20021;-71
2023/12/06 09:03:13;;;;;;;26.55;15.68;;;3.90;89.60;;;;;;9178906;19;20025;-67
2023/12/06 09:06:21;;;;;;;29.90;16.05;;;3.90;89.60;;;;;;9176306;19;20019;-68
2023/12/06 09:09:26;;;;;;;28.52;15.68;;;3.90;90.00;;;;;;9173493;19;20356;-70
2023/12/06 09:12:37;;;;;;;32.88;16.77;;;3.90;89.50;;;;;;9176498;19;20022;-69
2023/12/06 09:15:42;;;;;;;29.75;14.27;;;4.00;89.60;;;;;;9175700;19;20022;-70
2023/12/06 09:18:50;;;;;;;23.30;13.45;;;4.00;89.60;;;;;;9175761;19;20021;-70
2023/12/06 09:21:56;;;;;;;26.85;13.60;;;4.00;89.60;;;;;;9175860;19;20364;-69
2023/12/06 09:25:04;;;;;;;28.33;14.30;;;4.00;89.60;;;;;;9176726;19;20025;-69
2023/12/06 09:28:13;;;;;;;23.17;13.63;;;4.00;89.60;;;;;;9176235;19;20018;-69
2023/12/06 09:31:22;;;;;;;26.55;13.93;;;4.10;89.60;;;;;;9174229;19;20664;-70
2023/12/06 09:34:27;;;;;;;26.33;15.00;;;4.10;89.60;;;;;;9176020;19;20018;-70
2023/12/06 09:37:45;;;;;;;24.80;14.73;;;4.10;89.60;;;;;;9172856;19;20017;-68
2023/12/06 09:40:51;;;;;;;22.65;14.05;;;4.10;89.60;;;;;;9175426;19;20033;-69
2023/12/06 09:44:01;;;;;;;24.38;13.82;;;4.20;89.70;;;;;;9176250;19;20374;-69
2023/12/06 09:47:07;;;;;;;19.23;12.20;;;4.20;89.70;;;;;;9173702;19;20026;-69
2023/12/06 09:50:15;;;;;;;22.60;14.15;;;4.20;89.70;;;;;;9175588;19;20026;-69
2023/12/06 09:53:23;;;;;;;25.65;13.23;;;4.20;89.80;;;;;;9174769;19;20018;-70
2023/12/06 09:56:35;;;;;;;22.38;13.10;;;4.30;89.80;;;;;;9171870;19;20018;-71
2023/12/06 09:59:43;;;;;;;31.10;14.50;;;4.30;89.80;;;;;;9173239;19;20016;-69
2023/12/06 10:02:55;;;;;;;28.67;14.38;;;4.30;89.80;;;;;;9170613;19;20020;-72
2023/12/06 10:06:03;;;;;;;26.10;14.32;;;4.40;89.90;;;;;;9170914;19;20010;-73
2023/12/06 10:09:11;;;;;;;28.67;14.55;;;4.40;89.80;;;;;;9174046;19;20111;-72
2023/12/06 10:12:16;;;;;;;28.88;13.43;;;4.40;89.90;;;;;;9174212;19;20025;-72
2023/12/06 10:15:27;;;;;;;23.48;13.73;;;4.40;89.80;;;;;;9169883;19;20017;-71
2023/12/06 10:18:34;;;;;;;26.55;13.88;;;4.50;89.90;;;;;;9174241;19;20155;-72
2023/12/06 10:21:42;;;;;;;29.30;14.85;;;4.50;89.90;;;;;;9174370;19;20010;-73
2023/12/06 10:24:48;;;;;;;31.73;15.48;;;4.50;89.80;;;;;;9173725;19;20014;-71
2023/12/06 10:28:03;;;;;;;22.65;13.65;;;4.50;89.80;;;;;;9172160;19;20014;-71
2023/12/06 10:31:11;;;;;;;22.83;14.13;;;4.60;89.90;;;;;;9169141;19;20022;-71
2023/12/06 10:34:19;;;;;;;24.55;14.05;;;4.60;90.00;;;;;;9172987;19;20713;-71
2023/12/06 10:37:25;;;;;;;30.65;14.98;;;4.60;89.90;;;;;;9172177;19;20022;-71
2023/12/06 10:40:33;;;;;;;26.98;14.23;;;4.70;89.90;;;;;;9172685;19;20010;-72
2023/12/06 10:43:41;;;;;;;30.95;14.35;;;4.70;90.00;;;;;;9170577;19;20512;-71
2023/12/06 10:46:51;;;;;;;31.02;14.30;;;4.70;89.90;;;;;;9173266;19;20018;-71
2023/12/06 10:50:11;;;;;;;25.13;14.35;;;4.70;89.90;;;;;;9172018;19;20019;-71
2023/12/06 10:53:20;;;;;;;28.17;13.70;;;4.80;89.90;;;;;;9170067;19;20483;-71
2023/12/06 10:56:27;;;;;;;24.48;14.30;;;4.80;89.90;;;;;;9169801;19;20537;-71
2023/12/06 10:59:36;;;;;;;29.13;14.95;;;4.80;90.00;;;;;;9171786;19;20018;-71
2023/12/06 11:02:44;;;;;;;23.83;13.07;;;4.80;90.00;;;;;;9169594;19;20491;-71
2023/12/06 11:05:55;;;;;;;25.77;13.43;;;4.90;90.00;;;;;;9171333;19;20022;-73
2023/12/06 11:09:14;;;;;;;25.45;13.93;;;4.90;90.00;;;;;;9171460;19;20011;-72
2023/12/06 11:12:38;;;;;;;23.85;12.55;;;4.90;90.00;;;;;;9172218;19;20019;-74
2023/12/06 11:15:56;;;;;;;26.73;13.68;;;5.00;90.00;;;;;;9175852;19;20018;-72
2023/12/06 11:19:06;;;;;;;26.40;14.50;;;5.00;90.00;;;;;;9182246;19;20018;-72
2023/12/06 11:22:12;;;;;;;30.75;14.55;;;5.00;90.00;;;;;;9179930;19;20380;-72
2023/12/06 11:25:21;;;;;;;24.13;14.30;;;5.10;90.00;;;;;;9181220;19;20018;-72
2023/12/06 11:28:27;;;;;;;27.33;14.60;;;5.10;90.00;;;;;;9177081;19;20029;-71
2023/12/06 11:31:36;;;;;;;23.33;13.55;;;5.10;90.00;;;;;;9177059;19;20014;-71
2023/12/06 11:34:44;;;;;;;26.40;13.40;;;5.10;90.00;;;;;;9180075;19;20491;-72
2023/12/06 11:37:56;;;;;;;26.88;13.18;;;5.10;90.00;;;;;;9175202;19;20011;-71
2023/12/06 11:41:01;;;;;;;26.10;13.73;;;5.20;90.00;;;;;;9178974;19;20011;-73
2023/12/06 11:44:18;;;;;;;25.80;12.68;;;5.20;90.00;;;;;;9178018;19;20396;-72
2023/12/06 11:47:27;;;;;;;23.80;13.32;;;5.20;90.00;;;;;;9177966;19;20036;-71
2023/12/06 11:50:47;;;;;;;26.05;13.18;;;5.20;90.00;;;;;;9180537;19;20379;-71
2023/12/06 11:53:53;;;;;;;25.90;13.77;;;5.30;90.00;;;;;;9180983;19;20025;-72
2023/12/06 11:57:11;;;;;;;26.58;13.25;;;5.30;90.00;;;;;;9175447;19;20022;-72
2023/12/06 12:00:18;;;;;;;30.63;13.50;;;5.40;90.00;;;;;;9180295;19;20023;-73
2023/12/06 12:03:27;;;;;;;31.42;13.60;;;5.40;90.00;;;;;;9177643;19;20022;-73
2023/12/06 12:06:35;;;;;;;23.02;13.02;;;5.30;90.00;;;;;;9181506;19;20442;-72
2023/12/06 12:09:44;;;;;;;24.13;13.02;;;5.40;90.00;;;;;;9180183;19;20374;-72
2023/12/06 12:12:50;;;;;;;30.90;13.98;;;5.40;90.30;;;;;;9180201;19;20014;-72
2023/12/06 12:16:00;;;;;;;27.38;12.50;;;5.40;90.00;;;;;;9178571;19;20007;-71
2023/12/06 12:19:29;;;;;;;21.60;11.20;;;5.50;90.00;;;;;;9178794;19;20653;-70
2023/12/06 12:22:48;;;;;;;26.98;11.80;;;5.50;90.00;;;;;;9179158;19;20025;-70
2023/12/06 12:25:54;;;;;;;28.85;12.70;;;5.50;90.00;;;;;;9172586;19;20093;-68
2023/12/06 12:29:02;;;;;;;25.52;11.55;;;5.50;89.90;;;;;;9174999;19;20014;-70
2023/12/06 12:32:08;;;;;;;23.40;12.05;;;5.50;90.00;;;;;;9178969;19;20018;-70
2023/12/06 12:35:16;;;;;;;21.92;12.10;;;5.60;90.00;;;;;;9179115;19;20014;-70
2023/12/06 12:38:24;;;;;;;22.50;12.15;;;5.60;90.00;;;;;;9176148;19;20025;-70
2023/12/06 12:41:32;;;;;;;20.10;11.65;;;5.60;90.00;;;;;;9177683;19;20015;-70
2023/12/06 12:44:40;;;;;;;21.52;11.65;;;5.60;90.00;;;;;;9174998;19;20014;-69
2023/12/06 12:47:48;;;;;;;23.52;11.85;;;5.60;90.00;;;;;;9177665;19;20014;-68
2023/12/06 12:51:12;;;;;;;25.45;12.10;;;5.70;90.00;;;;;;9174197;19;20021;-68
2023/12/06 12:54:23;;;;;;;20.45;10.88;;;5.70;90.00;;;;;;9172675;19;20011;-71
2023/12/06 12:57:36;;;;;;;25.20;12.07;;;5.70;90.00;;;;;;9170439;19;20781;-68
2023/12/06 13:00:44;;;;;;;26.17;11.88;;;5.70;90.00;;;;;;9171997;19;20955;-69
2023/12/06 13:03:50;;;;;;;25.88;11.98;;;5.70;90.00;;;;;;9174580;19;20526;-69
2023/12/06 13:06:58;;;;;;;21.85;11.75;;;5.70;90.00;;;;;;9177646;19;20014;-70
2023/12/06 13:10:07;;;;;;;31.00;11.52;;;5.70;90.00;;;;;;9174828;19;20021;-72
2023/12/06 13:13:16;;;;;;;16.75;9.32;;;5.70;90.00;;;;;;9174978;19;20479;-72
2023/12/06 13:16:22;;;;;;;23.48;10.95;;;5.70;90.00;;;;;;9173134;19;20015;-71
2023/12/06 13:19:29;;;;;;;22.73;11.60;;;5.80;90.00;;;;;;9174418;19;20010;-72
2023/12/06 13:22:35;;;;;;;24.23;11.07;;;5.80;90.00;;;;;;9175572;19;20022;-73
2023/12/06 13:25:48;;;;;;;24.65;11.02;;;5.80;89.90;;;;;;9176936;19;20015;-72
2023/12/06 13:28:55;;;;;;;17.95;10.68;;;5.80;90.20;;;;;;9175995;19;20384;-72
2023/12/06 13:32:05;;;;;;;21.52;10.32;;;5.80;89.90;;;;;;9176032;19;20024;-72
2023/12/06 13:35:12;;;;;;;24.40;10.40;;;5.80;89.90;;;;;;9175613;19;20095;-72
2023/12/06 13:38:35;;;;;;;24.35;11.02;;;5.80;89.90;;;;;;9170845;19;20021;-74
2023/12/06 13:41:46;;;;;;;21.70;10.73;;;5.80;89.90;;;;;;9176261;19;20025;-72
2023/12/06 13:45:06;;;;;;;23.90;10.60;;;5.80;89.90;;;;;;9176638;19;20014;-73
2023/12/06 13:48:16;;;;;;;19.88;11.13;;;5.80;89.80;;;;;;9173901;19;20019;-76
2023/12/06 13:51:28;;;;;;;;;;;5.80;89.80;;;;;;9175810;19;20015;-73
2023/12/06 13:54:38;;;;;;;22.70;9.65;;;5.80;89.80;;;;;;9174088;19;19919;-73
2023/12/06 13:57:51;;;;;;;13.77;8.73;;;5.80;89.80;;;;;;9169034;19;20018;-75
2023/12/06 14:00:58;;;;;;;19.02;8.88;;;5.80;89.90;;;;;;9170198;19;20068;-74
2023/12/06 14:04:08;;;;;;;15.88;8.73;;;5.80;89.90;;;;;;9170076;19;20052;-74
2023/12/06 14:07:15;;;;;;;17.25;8.77;;;5.80;89.90;;;;;;9171882;19;20022;-74
2023/12/06 14:10:23;;;;;;;14.70;8.75;;;5.80;89.90;;;;;;9149263;19;20018;-73
2023/12/06 14:13:32;;;;;;;18.10;9.98;;;5.80;89.90;;;;;;9145831;19;21030;-72
2023/12/06 14:16:40;;;;;;;13.63;8.05;;;5.80;89.80;;;;;;9144908;19;20021;-72
2023/12/06 14:19:45;;;;;;;15.75;8.85;;;5.80;90.20;;;;;;9168459;19;20089;-73
2023/12/06 14:22:53;;;;;;;14.75;8.55;;;5.80;89.80;;;;;;9173398;19;20494;-73
2023/12/06 14:26:00;;;;;;;20.48;8.98;;;5.80;89.80;;;;;;9172128;19;20380;-73
2023/12/06 14:29:09;;;;;;;15.20;8.90;;;5.80;89.90;;;;;;9172381;19;20022;-73
2023/12/06 14:32:16;;;;;;;19.98;10.50;;;5.80;89.90;;;;;;9171756;19;20014;-72
2023/12/06 14:35:22;;;;;;;17.33;9.90;;;5.80;89.90;;;;;;9172474;19;20018;-74
2023/12/06 14:38:29;;;;;;;17.33;8.95;;;5.80;89.90;;;;;;9169203;19;20888;-73
2023/12/06 14:41:35;;;;;;;18.45;8.93;;;5.80;89.90;;;;;;9169836;19;20035;-73
2023/12/06 14:44:46;;;;;;;18.55;9.05;;;5.80;89.80;;;;;;9172500;19;20018;-75
2023/12/06 14:47:52;;;;;;;17.38;7.85;;;5.80;89.80;;;;;;9169779;19;20442;-73
2023/12/06 14:51:00;;;;;;;14.48;8.63;;;5.80;89.80;;;;;;9170966;19;20011;-74
2023/12/06 14:54:06;;;;;;;18.60;9.98;;;5.80;89.90;;;;;;9171194;19;20053;-74
2023/12/06 14:57:13;;;;;;;14.38;8.40;;;5.80;89.80;;;;;;9166563;19;20029;-74
2023/12/06 15:00:24;;;;;;;17.35;9.43;;;5.80;89.80;;;;;;9168214;19;20022;-75
2023/12/06 15:03:33;;;;;;;19.60;9.02;;;5.80;89.80;;;;;;9172945;19;20018;-74
2023/12/06 15:06:38;;;;;;;15.00;8.77;;;5.80;89.70;;;;;;9170664;19;20015;-73
2023/12/06 15:09:46;;;;;;;12.50;8.25;;;5.80;89.70;;;;;;9172677;19;20010;-74
2023/12/06 15:12:52;;;;;;;15.32;8.35;;;5.80;89.70;;;;;;9171071;19;20019;-74
2023/12/06 15:16:02;;;;;;;14.68;7.40;;;5.80;89.70;;;;;;9172612;19;20015;-74
2023/12/06 15:19:08;;;;;;;15.70;7.72;;;5.80;89.70;;;;;;9174159;19;20014;-75
2023/12/06 15:22:23;;;;;;;14.77;8.77;;;5.80;89.70;;;;;;9172826;19;20023;-75
2023/12/06 15:25:30;;;;;;;14.32;7.90;;;5.80;89.70;;;;;;9171383;19;20018;-75
2023/12/06 15:28:37;;;;;;;15.95;8.82;;;5.80;89.70;;;;;;9174454;19;20030;-74
2023/12/06 15:31:48;;;;;;;14.85;8.38;;;5.80;89.80;;;;;;9173077;19;20015;-77
2023/12/06 15:34:56;;;;;;;15.85;8.38;;;5.80;89.80;;;;;;9170062;19;20026;-74
2023/12/06 15:38:02;;;;;;;19.48;8.60;;;5.80;89.80;;;;;;9171602;19;20028;-74
2023/12/06 15:41:10;;;;;;;12.18;7.65;;;5.80;89.70;;;;;;9167835;19;20372;-75
2023/12/06 15:44:30;;;;;;;17.00;9.15;;;5.80;89.80;;;;;;9171999;19;20022;-75
2023/12/06 15:47:40;;;;;;;19.60;11.02;;;5.80;89.70;;;;;;9170782;19;20361;-74
2023/12/06 15:50:46;;;;;;;16.42;8.70;;;5.80;89.70;;;;;;9169699;19;20019;-75
2023/12/06 15:53:54;;;;;;;13.63;7.43;;;5.80;89.70;;;;;;9172167;19;20029;-71
2023/12/06 15:57:00;;;;;;;14.10;8.00;;;5.70;89.70;;;;;;9167508;19;20026;-71
2023/12/06 16:00:10;;;;;;;14.57;7.13;;;5.80;89.70;;;;;;9168422;19;20380;-72
2023/12/06 16:03:21;;;;;;;12.65;6.97;;;5.70;89.70;;;;;;9178733;19;20099;-72
2023/12/06 16:06:29;;;;;;;14.57;7.05;;;5.70;89.70;;;;;;9179721;19;20020;-71
2023/12/06 16:09:35;;;;;;;17.75;7.43;;;5.70;89.70;;;;;;9176372;19;20026;-72